sensor_id;sensor_type;location;lat;lon;timestamp;P1;durP1;ratioP1;P2;durP2;ratioP2
8312;SDS011;4194;43.408;24.626;2024-03-25T00:01:57;2.63;;;2.40;;
8312;SDS011;4194;43.408;24.626;2024-03-25T00:04:23;3.63;;;3.00;;
8312;SDS011;4194;43.408;24.626;2024-03-25T00:06:49;4.00;;;3.03;;
8312;SDS011;4194;43.408;24.626;2024-03-25T00:09:15;3.33;;;2.93;;
8312;SDS011;4194;43.408;24.626;2024-03-25T00:11:41;3.97;;;3.20;;
8312;SDS011;4194;43.408;24.626;2024-03-25T00:14:07;3.40;;;3.07;;
8312;SDS011;4194;43.408;24.626;2024-03-25T00:16:33;3.80;;;3.40;;
8312;SDS011;4194;43.408;24.626;2024-03-25T00:18:59;3.77;;;3.30;;
8312;SDS011;4194;43.408;24.626;2024-03-25T00:21:25;4.63;;;3.33;;
8312;SDS011;4194;43.408;24.626;2024-03-25T00:23:51;3.90;;;3.50;;
8312;SDS011;4194;43.408;24.626;2024-03-25T00:26:17;5.70;;;4.13;;
8312;SDS011;4194;43.408;24.626;2024-03-25T00:28:42;6.63;;;4.27;;
8312;SDS011;4194;43.408;24.626;2024-03-25T00:31:08;6.13;;;4.40;;
8312;SDS011;4194;43.408;24.626;2024-03-25T00:33:34;5.10;;;4.60;;
8312;SDS011;4194;43.408;24.626;2024-03-25T00:36:00;4.77;;;4.20;;
8312;SDS011;4194;43.408;24.626;2024-03-25T00:38:26;6.43;;;4.43;;
8312;SDS011;4194;43.408;24.626;2024-03-25T00:40:51;6.80;;;5.17;;
8312;SDS011;4194;43.408;24.626;2024-03-25T00:43:17;5.83;;;4.90;;
8312;SDS011;4194;43.408;24.626;2024-03-25T00:45:43;5.63;;;4.73;;
8312;SDS011;4194;43.408;24.626;2024-03-25T00:48:09;5.87;;;5.27;;
8312;SDS011;4194;43.408;24.626;2024-03-25T00:50:34;7.13;;;5.10;;
8312;SDS011;4194;43.408;24.626;2024-03-25T00:53:00;6.53;;;5.13;;
8312;SDS011;4194;43.408;24.626;2024-03-25T00:55:26;12.10;;;5.83;;
8312;SDS011;4194;43.408;24.626;2024-03-25T00:57:52;7.60;;;5.53;;
8312;SDS011;4194;43.408;24.626;2024-03-25T01:00:17;9.73;;;5.50;;
8312;SDS011;4194;43.408;24.626;2024-03-25T01:02:43;6.77;;;5.40;;
8312;SDS011;4194;43.408;24.626;2024-03-25T01:05:09;8.13;;;5.90;;
8312;SDS011;4194;43.408;24.626;2024-03-25T01:07:35;8.87;;;6.13;;
8312;SDS011;4194;43.408;24.626;2024-03-25T01:10:01;8.17;;;5.93;;
8312;SDS011;4194;43.408;24.626;2024-03-25T01:12:27;8.93;;;5.60;;
8312;SDS011;4194;43.408;24.626;2024-03-25T01:14:52;6.33;;;5.30;;
8312;SDS011;4194;43.408;24.626;2024-03-25T01:17:18;7.90;;;5.80;;
8312;SDS011;4194;43.408;24.626;2024-03-25T01:19:44;10.00;;;5.97;;
8312;SDS011;4194;43.408;24.626;2024-03-25T01:22:10;7.37;;;6.00;;
8312;SDS011;4194;43.408;24.626;2024-03-25T01:24:36;7.43;;;6.00;;
8312;SDS011;4194;43.408;24.626;2024-03-25T01:27:01;8.97;;;6.80;;
8312;SDS011;4194;43.408;24.626;2024-03-25T01:29:27;10.07;;;6.33;;
8312;SDS011;4194;43.408;24.626;2024-03-25T01:31:53;12.07;;;6.83;;
8312;SDS011;4194;43.408;24.626;2024-03-25T01:34:18;7.90;;;6.47;;
8312;SDS011;4194;43.408;24.626;2024-03-25T01:36:44;9.33;;;7.03;;
8312;SDS011;4194;43.408;24.626;2024-03-25T01:39:10;8.00;;;6.27;;
8312;SDS011;4194;43.408;24.626;2024-03-25T01:41:36;13.47;;;6.47;;
8312;SDS011;4194;43.408;24.626;2024-03-25T01:44:01;11.50;;;6.57;;
8312;SDS011;4194;43.408;24.626;2024-03-25T01:46:27;9.90;;;6.70;;
8312;SDS011;4194;43.408;24.626;2024-03-25T01:48:53;7.73;;;6.13;;
8312;SDS011;4194;43.408;24.626;2024-03-25T01:51:23;9.53;;;6.90;;
8312;SDS011;4194;43.408;24.626;2024-03-25T01:53:49;7.70;;;6.73;;
8312;SDS011;4194;43.408;24.626;2024-03-25T01:56:15;8.40;;;6.77;;
8312;SDS011;4194;43.408;24.626;2024-03-25T01:58:42;10.43;;;6.97;;
8312;SDS011;4194;43.408;24.626;2024-03-25T02:01:08;8.93;;;6.90;;
8312;SDS011;4194;43.408;24.626;2024-03-25T02:03:38;10.27;;;6.73;;
8312;SDS011;4194;43.408;24.626;2024-03-25T02:06:06;9.10;;;7.17;;
8312;SDS011;4194;43.408;24.626;2024-03-25T02:08:34;10.07;;;7.63;;
8312;SDS011;4194;43.408;24.626;2024-03-25T02:11:01;13.70;;;7.47;;
8312;SDS011;4194;43.408;24.626;2024-03-25T02:13:27;11.30;;;7.40;;
8312;SDS011;4194;43.408;24.626;2024-03-25T02:15:53;10.60;;;7.73;;
8312;SDS011;4194;43.408;24.626;2024-03-25T02:18:20;10.17;;;7.53;;
8312;SDS011;4194;43.408;24.626;2024-03-25T02:20:46;13.83;;;8.70;;
8312;SDS011;4194;43.408;24.626;2024-03-25T02:23:12;10.87;;;8.00;;
8312;SDS011;4194;43.408;24.626;2024-03-25T02:25:39;10.40;;;7.70;;
8312;SDS011;4194;43.408;24.626;2024-03-25T02:28:07;11.60;;;8.20;;
8312;SDS011;4194;43.408;24.626;2024-03-25T02:30:33;11.70;;;8.37;;
8312;SDS011;4194;43.408;24.626;2024-03-25T02:32:58;13.27;;;8.60;;
8312;SDS011;4194;43.408;24.626;2024-03-25T02:35:25;12.40;;;8.80;;
8312;SDS011;4194;43.408;24.626;2024-03-25T02:37:52;11.57;;;7.80;;
8312;SDS011;4194;43.408;24.626;2024-03-25T02:40:18;10.87;;;8.33;;
8312;SDS011;4194;43.408;24.626;2024-03-25T02:42:45;11.17;;;7.97;;
8312;SDS011;4194;43.408;24.626;2024-03-25T02:45:11;14.00;;;7.93;;
8312;SDS011;4194;43.408;24.626;2024-03-25T02:47:37;14.33;;;9.07;;
8312;SDS011;4194;43.408;24.626;2024-03-25T02:50:03;11.50;;;7.73;;
8312;SDS011;4194;43.408;24.626;2024-03-25T02:52:29;11.83;;;8.30;;
8312;SDS011;4194;43.408;24.626;2024-03-25T02:54:54;11.97;;;7.30;;
8312;SDS011;4194;43.408;24.626;2024-03-25T02:57:20;12.20;;;7.83;;
8312;SDS011;4194;43.408;24.626;2024-03-25T02:59:46;9.87;;;6.90;;
8312;SDS011;4194;43.408;24.626;2024-03-25T03:02:12;12.60;;;8.07;;
8312;SDS011;4194;43.408;24.626;2024-03-25T03:04:38;11.67;;;7.83;;
8312;SDS011;4194;43.408;24.626;2024-03-25T03:07:04;11.70;;;7.83;;
8312;SDS011;4194;43.408;24.626;2024-03-25T03:09:30;11.70;;;7.37;;
8312;SDS011;4194;43.408;24.626;2024-03-25T03:11:55;10.03;;;7.27;;
8312;SDS011;4194;43.408;24.626;2024-03-25T03:14:21;9.40;;;7.10;;
8312;SDS011;4194;43.408;24.626;2024-03-25T03:16:47;8.47;;;7.03;;
8312;SDS011;4194;43.408;24.626;2024-03-25T03:19:12;10.13;;;7.33;;
8312;SDS011;4194;43.408;24.626;2024-03-25T03:21:38;11.57;;;7.30;;
8312;SDS011;4194;43.408;24.626;2024-03-25T03:24:04;9.80;;;7.50;;
8312;SDS011;4194;43.408;24.626;2024-03-25T03:26:30;8.87;;;6.97;;
8312;SDS011;4194;43.408;24.626;2024-03-25T03:28:56;8.57;;;6.53;;
8312;SDS011;4194;43.408;24.626;2024-03-25T03:31:22;10.83;;;7.43;;
8312;SDS011;4194;43.408;24.626;2024-03-25T03:33:48;9.47;;;7.23;;
8312;SDS011;4194;43.408;24.626;2024-03-25T03:36:17;10.33;;;7.03;;
8312;SDS011;4194;43.408;24.626;2024-03-25T03:38:44;13.17;;;7.77;;
8312;SDS011;4194;43.408;24.626;2024-03-25T03:41:10;9.10;;;7.27;;
8312;SDS011;4194;43.408;24.626;2024-03-25T03:43:36;8.40;;;7.07;;
8312;SDS011;4194;43.408;24.626;2024-03-25T03:46:02;9.13;;;7.03;;
8312;SDS011;4194;43.408;24.626;2024-03-25T03:48:28;11.37;;;7.47;;
8312;SDS011;4194;43.408;24.626;2024-03-25T03:50:54;9.73;;;7.40;;
8312;SDS011;4194;43.408;24.626;2024-03-25T03:53:20;10.33;;;6.83;;
8312;SDS011;4194;43.408;24.626;2024-03-25T03:55:55;9.93;;;7.70;;
8312;SDS011;4194;43.408;24.626;2024-03-25T03:58:30;11.83;;;7.53;;
8312;SDS011;4194;43.408;24.626;2024-03-25T04:00:56;11.17;;;7.50;;
8312;SDS011;4194;43.408;24.626;2024-03-25T04:03:22;9.83;;;7.37;;
8312;SDS011;4194;43.408;24.626;2024-03-25T04:05:48;11.90;;;7.57;;
8312;SDS011;4194;43.408;24.626;2024-03-25T04:08:14;9.50;;;7.13;;
8312;SDS011;4194;43.408;24.626;2024-03-25T04:10:40;11.03;;;7.37;;
8312;SDS011;4194;43.408;24.626;2024-03-25T04:13:06;14.23;;;7.87;;
8312;SDS011;4194;43.408;24.626;2024-03-25T04:15:36;11.20;;;7.60;;
8312;SDS011;4194;43.408;24.626;2024-03-25T04:18:02;11.27;;;7.90;;
8312;SDS011;4194;43.408;24.626;2024-03-25T04:20:28;10.90;;;7.77;;
8312;SDS011;4194;43.408;24.626;2024-03-25T04:22:54;12.57;;;8.07;;
8312;SDS011;4194;43.408;24.626;2024-03-25T04:25:20;11.93;;;8.43;;
8312;SDS011;4194;43.408;24.626;2024-03-25T04:27:47;12.10;;;8.50;;
8312;SDS011;4194;43.408;24.626;2024-03-25T04:30:13;11.53;;;8.30;;
8312;SDS011;4194;43.408;24.626;2024-03-25T04:32:39;12.33;;;8.70;;
8312;SDS011;4194;43.408;24.626;2024-03-25T04:35:05;16.00;;;8.60;;
8312;SDS011;4194;43.408;24.626;2024-03-25T04:37:33;12.67;;;9.43;;
8312;SDS011;4194;43.408;24.626;2024-03-25T04:39:59;15.23;;;9.30;;
8312;SDS011;4194;43.408;24.626;2024-03-25T04:42:25;14.10;;;9.93;;
8312;SDS011;4194;43.408;24.626;2024-03-25T04:44:51;15.70;;;11.13;;
8312;SDS011;4194;43.408;24.626;2024-03-25T04:47:17;17.47;;;10.80;;
8312;SDS011;4194;43.408;24.626;2024-03-25T04:49:43;14.03;;;9.87;;
8312;SDS011;4194;43.408;24.626;2024-03-25T04:52:10;16.00;;;10.10;;
8312;SDS011;4194;43.408;24.626;2024-03-25T04:54:38;17.30;;;11.03;;
8312;SDS011;4194;43.408;24.626;2024-03-25T04:57:04;16.70;;;12.07;;
8312;SDS011;4194;43.408;24.626;2024-03-25T04:59:31;16.83;;;11.70;;
8312;SDS011;4194;43.408;24.626;2024-03-25T05:01:57;15.47;;;11.17;;
8312;SDS011;4194;43.408;24.626;2024-03-25T05:04:23;14.87;;;10.67;;
8312;SDS011;4194;43.408;24.626;2024-03-25T05:06:49;17.13;;;11.27;;
8312;SDS011;4194;43.408;24.626;2024-03-25T05:09:15;16.93;;;11.13;;
8312;SDS011;4194;43.408;24.626;2024-03-25T05:11:41;17.70;;;12.07;;
8312;SDS011;4194;43.408;24.626;2024-03-25T05:14:07;16.77;;;10.93;;
8312;SDS011;4194;43.408;24.626;2024-03-25T05:16:33;18.40;;;12.07;;
8312;SDS011;4194;43.408;24.626;2024-03-25T05:18:59;16.77;;;11.50;;
8312;SDS011;4194;43.408;24.626;2024-03-25T05:21:24;16.37;;;11.33;;
8312;SDS011;4194;43.408;24.626;2024-03-25T05:23:50;19.37;;;12.50;;
8312;SDS011;4194;43.408;24.626;2024-03-25T05:26:16;19.13;;;11.07;;
8312;SDS011;4194;43.408;24.626;2024-03-25T05:28:41;16.53;;;11.70;;
8312;SDS011;4194;43.408;24.626;2024-03-25T05:31:07;20.43;;;12.83;;
8312;SDS011;4194;43.408;24.626;2024-03-25T05:33:33;17.67;;;11.37;;
8312;SDS011;4194;43.408;24.626;2024-03-25T05:35:59;16.93;;;12.80;;
8312;SDS011;4194;43.408;24.626;2024-03-25T05:38:26;20.57;;;12.20;;
8312;SDS011;4194;43.408;24.626;2024-03-25T05:40:52;16.77;;;11.80;;
8312;SDS011;4194;43.408;24.626;2024-03-25T08:15:35;14.17;;;9.67;;
8312;SDS011;4194;43.408;24.626;2024-03-25T08:18:02;12.37;;;9.33;;
8312;SDS011;4194;43.408;24.626;2024-03-25T08:20:28;15.37;;;9.13;;
8312;SDS011;4194;43.408;24.626;2024-03-25T08:22:53;16.07;;;9.27;;
8312;SDS011;4194;43.408;24.626;2024-03-25T08:25:19;15.67;;;9.83;;
8312;SDS011;4194;43.408;24.626;2024-03-25T08:27:45;14.53;;;9.07;;
8312;SDS011;4194;43.408;24.626;2024-03-25T08:30:10;15.13;;;7.70;;
8312;SDS011;4194;43.408;24.626;2024-03-25T08:32:36;13.27;;;8.80;;
8312;SDS011;4194;43.408;24.626;2024-03-25T08:35:02;12.97;;;8.53;;
8312;SDS011;4194;43.408;24.626;2024-03-25T08:37:28;10.60;;;7.93;;
8312;SDS011;4194;43.408;24.626;2024-03-25T08:39:53;12.00;;;8.07;;
8312;SDS011;4194;43.408;24.626;2024-03-25T08:42:19;11.40;;;7.90;;
8312;SDS011;4194;43.408;24.626;2024-03-25T08:44:46;14.43;;;8.57;;
8312;SDS011;4194;43.408;24.626;2024-03-25T08:47:12;16.77;;;8.80;;
8312;SDS011;4194;43.408;24.626;2024-03-25T08:49:38;10.00;;;8.00;;
8312;SDS011;4194;43.408;24.626;2024-03-25T08:52:03;11.00;;;8.13;;
8312;SDS011;4194;43.408;24.626;2024-03-25T08:54:29;10.67;;;8.27;;
8312;SDS011;4194;43.408;24.626;2024-03-25T08:56:55;10.97;;;8.37;;
8312;SDS011;4194;43.408;24.626;2024-03-25T08:59:20;11.53;;;8.50;;
8312;SDS011;4194;43.408;24.626;2024-03-25T09:01:46;11.47;;;8.83;;
8312;SDS011;4194;43.408;24.626;2024-03-25T09:04:12;12.90;;;8.60;;
8312;SDS011;4194;43.408;24.626;2024-03-25T09:06:39;10.90;;;8.40;;
8312;SDS011;4194;43.408;24.626;2024-03-25T09:09:05;17.73;;;8.67;;
8312;SDS011;4194;43.408;24.626;2024-03-25T09:11:49;14.00;;;7.30;;
8312;SDS011;4194;43.408;24.626;2024-03-25T09:14:15;18.77;;;7.70;;
8312;SDS011;4194;43.408;24.626;2024-03-25T09:16:41;19.03;;;8.77;;
8312;SDS011;4194;43.408;24.626;2024-03-25T09:19:06;11.83;;;8.53;;
8312;SDS011;4194;43.408;24.626;2024-03-25T09:21:32;10.90;;;8.90;;
8312;SDS011;4194;43.408;24.626;2024-03-25T09:23:58;17.57;;;9.67;;
8312;SDS011;4194;43.408;24.626;2024-03-25T09:26:24;12.53;;;8.67;;
8312;SDS011;4194;43.408;24.626;2024-03-25T09:28:49;12.80;;;8.90;;
8312;SDS011;4194;43.408;24.626;2024-03-25T09:31:15;12.77;;;9.50;;
8312;SDS011;4194;43.408;24.626;2024-03-25T09:33:41;13.63;;;9.00;;
8312;SDS011;4194;43.408;24.626;2024-03-25T09:36:06;13.43;;;8.20;;
8312;SDS011;4194;43.408;24.626;2024-03-25T09:38:32;11.50;;;8.13;;
8312;SDS011;4194;43.408;24.626;2024-03-25T09:40:58;14.10;;;7.83;;
8312;SDS011;4194;43.408;24.626;2024-03-25T09:43:25;9.47;;;7.53;;
8312;SDS011;4194;43.408;24.626;2024-03-25T09:46:07;10.23;;;8.03;;
8312;SDS011;4194;43.408;24.626;2024-03-25T09:48:34;8.23;;;6.90;;
8312;SDS011;4194;43.408;24.626;2024-03-25T09:51:01;14.40;;;8.60;;
8312;SDS011;4194;43.408;24.626;2024-03-25T09:53:28;13.13;;;7.60;;
8312;SDS011;4194;43.408;24.626;2024-03-25T09:55:54;9.90;;;7.60;;
8312;SDS011;4194;43.408;24.626;2024-03-25T09:58:21;10.83;;;7.30;;
8312;SDS011;4194;43.408;24.626;2024-03-25T10:00:49;10.57;;;8.33;;
8312;SDS011;4194;43.408;24.626;2024-03-25T10:03:21;13.70;;;8.73;;
8312;SDS011;4194;43.408;24.626;2024-03-25T10:05:47;13.37;;;8.27;;
8312;SDS011;4194;43.408;24.626;2024-03-25T10:08:13;12.43;;;8.13;;
8312;SDS011;4194;43.408;24.626;2024-03-25T10:10:38;9.63;;;6.90;;
8312;SDS011;4194;43.408;24.626;2024-03-25T10:13:04;12.00;;;7.77;;
8312;SDS011;4194;43.408;24.626;2024-03-25T10:15:30;8.53;;;7.30;;
8312;SDS011;4194;43.408;24.626;2024-03-25T10:17:57;7.17;;;5.93;;
8312;SDS011;4194;43.408;24.626;2024-03-25T10:20:23;10.20;;;6.73;;
8312;SDS011;4194;43.408;24.626;2024-03-25T10:22:49;14.53;;;7.20;;
8312;SDS011;4194;43.408;24.626;2024-03-25T10:25:21;12.57;;;7.40;;
8312;SDS011;4194;43.408;24.626;2024-03-25T10:30:26;8.97;;;7.00;;
8312;SDS011;4194;43.408;24.626;2024-03-25T10:33:05;10.17;;;6.03;;
8312;SDS011;4194;43.408;24.626;2024-03-25T10:35:32;8.57;;;5.53;;
8312;SDS011;4194;43.408;24.626;2024-03-25T10:38:00;9.43;;;6.20;;
8312;SDS011;4194;43.408;24.626;2024-03-25T10:40:28;10.13;;;5.67;;
8312;SDS011;4194;43.408;24.626;2024-03-25T10:43:16;4.90;;;4.40;;
8312;SDS011;4194;43.408;24.626;2024-03-25T10:45:45;6.93;;;4.50;;
8312;SDS011;4194;43.408;24.626;2024-03-25T10:48:19;5.88;;;4.47;;
8312;SDS011;4194;43.408;24.626;2024-03-25T10:50:51;4.73;;;4.30;;
8312;SDS011;4194;43.408;24.626;2024-03-25T10:53:18;4.50;;;4.07;;
8312;SDS011;4194;43.408;24.626;2024-03-25T10:55:46;5.87;;;4.17;;
8312;SDS011;4194;43.408;24.626;2024-03-25T10:58:16;5.13;;;4.20;;
8312;SDS011;4194;43.408;24.626;2024-03-25T11:00:42;7.10;;;5.03;;
8312;SDS011;4194;43.408;24.626;2024-03-25T11:03:11;8.07;;;3.80;;
8312;SDS011;4194;43.408;24.626;2024-03-25T11:05:37;6.20;;;3.83;;
8312;SDS011;4194;43.408;24.626;2024-03-25T11:10:40;4.30;;;3.30;;
8312;SDS011;4194;43.408;24.626;2024-03-25T11:13:18;6.37;;;2.80;;
8312;SDS011;4194;43.408;24.626;2024-03-25T11:15:45;6.73;;;3.87;;
8312;SDS011;4194;43.408;24.626;2024-03-25T11:18:12;5.07;;;4.13;;
8312;SDS011;4194;43.408;24.626;2024-03-25T11:20:39;6.43;;;3.70;;
8312;SDS011;4194;43.408;24.626;2024-03-25T11:23:12;4.30;;;2.73;;
8312;SDS011;4194;43.408;24.626;2024-03-25T11:25:39;9.63;;;2.83;;
8312;SDS011;4194;43.408;24.626;2024-03-25T11:28:05;3.93;;;2.30;;
8312;SDS011;4194;43.408;24.626;2024-03-25T11:30:32;2.40;;;2.20;;
8312;SDS011;4194;43.408;24.626;2024-03-25T11:32:58;4.00;;;2.47;;
8312;SDS011;4194;43.408;24.626;2024-03-25T11:35:27;3.37;;;2.17;;
8312;SDS011;4194;43.408;24.626;2024-03-25T11:37:53;2.90;;;2.23;;
8312;SDS011;4194;43.408;24.626;2024-03-25T11:40:19;2.57;;;2.10;;
8312;SDS011;4194;43.408;24.626;2024-03-25T11:42:45;4.70;;;1.80;;
8312;SDS011;4194;43.408;24.626;2024-03-25T11:47:41;7.73;;;2.60;;
8312;SDS011;4194;43.408;24.626;2024-03-25T11:50:08;4.97;;;2.17;;
8312;SDS011;4194;43.408;24.626;2024-03-25T11:52:34;3.53;;;2.00;;
8312;SDS011;4194;43.408;24.626;2024-03-25T11:55:00;3.20;;;2.30;;
8312;SDS011;4194;43.408;24.626;2024-03-25T11:57:27;2.93;;;1.70;;
8312;SDS011;4194;43.408;24.626;2024-03-25T11:59:53;1.97;;;1.60;;
8312;SDS011;4194;43.408;24.626;2024-03-25T12:02:19;3.60;;;1.70;;
8312;SDS011;4194;43.408;24.626;2024-03-25T12:04:45;2.30;;;1.97;;
8312;SDS011;4194;43.408;24.626;2024-03-25T12:07:13;2.10;;;1.90;;
8312;SDS011;4194;43.408;24.626;2024-03-25T12:09:39;3.07;;;1.80;;
8312;SDS011;4194;43.408;24.626;2024-03-25T12:12:24;2.63;;;1.80;;
8312;SDS011;4194;43.408;24.626;2024-03-25T12:14:50;2.00;;;1.80;;
8312;SDS011;4194;43.408;24.626;2024-03-25T12:17:18;7.73;;;2.10;;
8312;SDS011;4194;43.408;24.626;2024-03-25T12:19:45;3.40;;;1.90;;
8312;SDS011;4194;43.408;24.626;2024-03-25T12:22:24;3.37;;;1.63;;
8312;SDS011;4194;43.408;24.626;2024-03-25T12:24:51;2.40;;;1.50;;
8312;SDS011;4194;43.408;24.626;2024-03-25T12:27:16;4.33;;;2.63;;
8312;SDS011;4194;43.408;24.626;2024-03-25T12:29:42;5.47;;;2.93;;
8312;SDS011;4194;43.408;24.626;2024-03-25T12:32:09;4.40;;;1.97;;
8312;SDS011;4194;43.408;24.626;2024-03-25T12:34:35;21.07;;;8.60;;
8312;SDS011;4194;43.408;24.626;2024-03-25T12:37:01;9.90;;;5.50;;
8312;SDS011;4194;43.408;24.626;2024-03-25T12:39:29;5.07;;;3.40;;
8312;SDS011;4194;43.408;24.626;2024-03-25T12:41:55;8.27;;;4.43;;
8312;SDS011;4194;43.408;24.626;2024-03-25T12:44:21;4.83;;;1.90;;
8312;SDS011;4194;43.408;24.626;2024-03-25T12:46:47;2.43;;;1.77;;
8312;SDS011;4194;43.408;24.626;2024-03-25T12:49:13;4.60;;;1.83;;
8312;SDS011;4194;43.408;24.626;2024-03-25T12:51:38;1.83;;;1.67;;
8312;SDS011;4194;43.408;24.626;2024-03-25T12:54:04;1.90;;;1.57;;
8312;SDS011;4194;43.408;24.626;2024-03-25T12:56:30;3.43;;;1.80;;
8312;SDS011;4194;43.408;24.626;2024-03-25T12:58:55;2.43;;;1.80;;
8312;SDS011;4194;43.408;24.626;2024-03-25T13:01:21;2.83;;;1.80;;
8312;SDS011;4194;43.408;24.626;2024-03-25T13:03:46;2.50;;;1.80;;
8312;SDS011;4194;43.408;24.626;2024-03-25T13:06:12;2.63;;;1.37;;
8312;SDS011;4194;43.408;24.626;2024-03-25T13:08:38;3.13;;;2.10;;
8312;SDS011;4194;43.408;24.626;2024-03-25T13:11:03;1.50;;;1.40;;
8312;SDS011;4194;43.408;24.626;2024-03-25T13:13:29;1.53;;;1.43;;
8312;SDS011;4194;43.408;24.626;2024-03-25T13:15:56;1.93;;;1.27;;
8312;SDS011;4194;43.408;24.626;2024-03-25T13:18:22;4.67;;;2.20;;
8312;SDS011;4194;43.408;24.626;2024-03-25T13:20:48;3.57;;;1.53;;
8312;SDS011;4194;43.408;24.626;2024-03-25T13:23:14;1.80;;;1.70;;
8312;SDS011;4194;43.408;24.626;2024-03-25T13:25:41;2.13;;;1.40;;
8312;SDS011;4194;43.408;24.626;2024-03-25T13:28:07;2.90;;;1.87;;
8312;SDS011;4194;43.408;24.626;2024-03-25T13:30:34;1.60;;;1.50;;
8312;SDS011;4194;43.408;24.626;2024-03-25T13:33:00;2.50;;;1.83;;
8312;SDS011;4194;43.408;24.626;2024-03-25T13:35:26;2.07;;;1.80;;
8312;SDS011;4194;43.408;24.626;2024-03-25T13:37:52;2.73;;;1.93;;
8312;SDS011;4194;43.408;24.626;2024-03-25T13:40:17;3.43;;;1.93;;
8312;SDS011;4194;43.408;24.626;2024-03-25T13:42:43;4.80;;;1.53;;
8312;SDS011;4194;43.408;24.626;2024-03-25T13:45:09;2.83;;;1.60;;
8312;SDS011;4194;43.408;24.626;2024-03-25T13:47:35;3.83;;;2.20;;
8312;SDS011;4194;43.408;24.626;2024-03-25T13:50:01;2.43;;;1.80;;
8312;SDS011;4194;43.408;24.626;2024-03-25T13:52:34;2.70;;;1.60;;
8312;SDS011;4194;43.408;24.626;2024-03-25T13:55:00;2.10;;;1.60;;
8312;SDS011;4194;43.408;24.626;2024-03-25T13:57:29;4.20;;;2.23;;
8312;SDS011;4194;43.408;24.626;2024-03-25T13:59:55;4.13;;;2.17;;
8312;SDS011;4194;43.408;24.626;2024-03-25T14:02:21;5.03;;;2.80;;
8312;SDS011;4194;43.408;24.626;2024-03-25T14:04:48;4.97;;;2.77;;
8312;SDS011;4194;43.408;24.626;2024-03-25T14:07:13;3.80;;;2.30;;
8312;SDS011;4194;43.408;24.626;2024-03-25T14:09:39;2.90;;;1.70;;
8312;SDS011;4194;43.408;24.626;2024-03-25T14:12:05;3.27;;;1.90;;
8312;SDS011;4194;43.408;24.626;2024-03-25T14:14:31;3.03;;;1.70;;
8312;SDS011;4194;43.408;24.626;2024-03-25T14:16:56;2.97;;;1.90;;
8312;SDS011;4194;43.408;24.626;2024-03-25T14:19:22;2.80;;;2.00;;
8312;SDS011;4194;43.408;24.626;2024-03-25T14:21:48;3.57;;;1.60;;
8312;SDS011;4194;43.408;24.626;2024-03-25T14:24:15;2.10;;;1.20;;
8312;SDS011;4194;43.408;24.626;2024-03-25T14:26:40;2.73;;;1.50;;
8312;SDS011;4194;43.408;24.626;2024-03-25T14:29:06;2.93;;;1.80;;
8312;SDS011;4194;43.408;24.626;2024-03-25T14:31:32;2.17;;;1.93;;
8312;SDS011;4194;43.408;24.626;2024-03-25T14:33:58;3.07;;;1.67;;
8312;SDS011;4194;43.408;24.626;2024-03-25T14:36:24;3.67;;;2.10;;
8312;SDS011;4194;43.408;24.626;2024-03-25T14:38:49;3.30;;;1.87;;
8312;SDS011;4194;43.408;24.626;2024-03-25T14:41:19;4.90;;;1.90;;
8312;SDS011;4194;43.408;24.626;2024-03-25T14:43:45;2.77;;;2.00;;
8312;SDS011;4194;43.408;24.626;2024-03-25T14:46:13;3.23;;;1.53;;
8312;SDS011;4194;43.408;24.626;2024-03-25T14:48:39;3.03;;;1.40;;
8312;SDS011;4194;43.408;24.626;2024-03-25T14:51:05;2.70;;;1.30;;
8312;SDS011;4194;43.408;24.626;2024-03-25T14:53:30;6.73;;;1.70;;
8312;SDS011;4194;43.408;24.626;2024-03-25T14:55:56;1.57;;;1.37;;
8312;SDS011;4194;43.408;24.626;2024-03-25T14:58:22;1.47;;;1.37;;
8312;SDS011;4194;43.408;24.626;2024-03-25T15:00:47;1.83;;;1.30;;
8312;SDS011;4194;43.408;24.626;2024-03-25T15:03:13;1.80;;;1.30;;
8312;SDS011;4194;43.408;24.626;2024-03-25T15:05:39;2.53;;;1.30;;
8312;SDS011;4194;43.408;24.626;2024-03-25T15:08:04;2.50;;;1.53;;
8312;SDS011;4194;43.408;24.626;2024-03-25T15:10:33;4.10;;;1.53;;
8312;SDS011;4194;43.408;24.626;2024-03-25T15:12:59;2.80;;;1.70;;
8312;SDS011;4194;43.408;24.626;2024-03-25T15:15:25;3.53;;;1.70;;
8312;SDS011;4194;43.408;24.626;2024-03-25T15:17:51;3.57;;;1.70;;
8312;SDS011;4194;43.408;24.626;2024-03-25T15:20:16;1.07;;;1.07;;
8312;SDS011;4194;43.408;24.626;2024-03-25T15:22:42;2.70;;;1.47;;
8312;SDS011;4194;43.408;24.626;2024-03-25T15:25:09;1.23;;;1.10;;
8312;SDS011;4194;43.408;24.626;2024-03-25T15:27:35;1.50;;;1.40;;
8312;SDS011;4194;43.408;24.626;2024-03-25T15:30:02;2.40;;;1.70;;
8312;SDS011;4194;43.408;24.626;2024-03-25T15:32:31;7.90;;;2.63;;
8312;SDS011;4194;43.408;24.626;2024-03-25T15:34:57;1.37;;;1.10;;
8312;SDS011;4194;43.408;24.626;2024-03-25T15:37:23;3.30;;;1.10;;
8312;SDS011;4194;43.408;24.626;2024-03-25T15:39:49;4.83;;;1.10;;
8312;SDS011;4194;43.408;24.626;2024-03-25T15:42:15;2.77;;;1.10;;
8312;SDS011;4194;43.408;24.626;2024-03-25T15:44:41;4.07;;;1.30;;
8312;SDS011;4194;43.408;24.626;2024-03-25T15:47:07;4.73;;;1.40;;
8312;SDS011;4194;43.408;24.626;2024-03-25T15:49:33;4.77;;;1.23;;
8312;SDS011;4194;43.408;24.626;2024-03-25T15:51:59;4.43;;;1.43;;
8312;SDS011;4194;43.408;24.626;2024-03-25T15:54:24;3.00;;;1.10;;
8312;SDS011;4194;43.408;24.626;2024-03-25T15:56:50;1.67;;;0.93;;
8312;SDS011;4194;43.408;24.626;2024-03-25T15:59:17;8.20;;;2.23;;
8312;SDS011;4194;43.408;24.626;2024-03-25T16:01:42;1.87;;;1.23;;
8312;SDS011;4194;43.408;24.626;2024-03-25T16:04:08;2.27;;;1.30;;
8312;SDS011;4194;43.408;24.626;2024-03-25T16:06:34;2.67;;;1.67;;
8312;SDS011;4194;43.408;24.626;2024-03-25T16:08:59;1.77;;;1.03;;
8312;SDS011;4194;43.408;24.626;2024-03-25T16:11:25;1.30;;;1.20;;
8312;SDS011;4194;43.408;24.626;2024-03-25T16:13:51;1.90;;;1.30;;
8312;SDS011;4194;43.408;24.626;2024-03-25T16:16:17;2.70;;;1.30;;
8312;SDS011;4194;43.408;24.626;2024-03-25T16:18:43;2.40;;;1.63;;
8312;SDS011;4194;43.408;24.626;2024-03-25T16:21:15;2.77;;;1.37;;
8312;SDS011;4194;43.408;24.626;2024-03-25T16:23:43;4.23;;;1.73;;
8312;SDS011;4194;43.408;24.626;2024-03-25T16:26:09;2.43;;;1.57;;
8312;SDS011;4194;43.408;24.626;2024-03-25T16:28:36;0.97;;;0.90;;
8312;SDS011;4194;43.408;24.626;2024-03-25T16:31:02;1.77;;;1.40;;
8312;SDS011;4194;43.408;24.626;2024-03-25T16:33:29;1.73;;;1.33;;
8312;SDS011;4194;43.408;24.626;2024-03-25T16:35:55;6.57;;;1.30;;
8312;SDS011;4194;43.408;24.626;2024-03-25T16:38:21;1.50;;;1.40;;
8312;SDS011;4194;43.408;24.626;2024-03-25T16:40:47;3.30;;;1.53;;
8312;SDS011;4194;43.408;24.626;2024-03-25T16:43:12;2.80;;;1.50;;
8312;SDS011;4194;43.408;24.626;2024-03-25T16:45:38;2.00;;;1.10;;
8312;SDS011;4194;43.408;24.626;2024-03-25T16:48:04;2.37;;;1.47;;
8312;SDS011;4194;43.408;24.626;2024-03-25T16:50:30;2.47;;;1.40;;
8312;SDS011;4194;43.408;24.626;2024-03-25T16:52:55;1.97;;;1.50;;
8312;SDS011;4194;43.408;24.626;2024-03-25T16:55:21;1.60;;;1.40;;
8312;SDS011;4194;43.408;24.626;2024-03-25T16:57:47;4.83;;;1.50;;
8312;SDS011;4194;43.408;24.626;2024-03-25T17:00:12;1.97;;;1.70;;
8312;SDS011;4194;43.408;24.626;2024-03-25T17:02:38;2.70;;;1.10;;
8312;SDS011;4194;43.408;24.626;2024-03-25T17:05:07;2.47;;;1.27;;
8312;SDS011;4194;43.408;24.626;2024-03-25T17:07:33;2.20;;;1.57;;
8312;SDS011;4194;43.408;24.626;2024-03-25T17:09:59;2.20;;;1.30;;
8312;SDS011;4194;43.408;24.626;2024-03-25T17:12:25;3.27;;;1.60;;
8312;SDS011;4194;43.408;24.626;2024-03-25T17:14:51;3.50;;;1.30;;
8312;SDS011;4194;43.408;24.626;2024-03-25T17:17:17;1.40;;;1.30;;
8312;SDS011;4194;43.408;24.626;2024-03-25T17:19:43;4.23;;;1.30;;
8312;SDS011;4194;43.408;24.626;2024-03-25T17:22:08;5.57;;;1.57;;
8312;SDS011;4194;43.408;24.626;2024-03-25T17:24:35;2.63;;;1.80;;
8312;SDS011;4194;43.408;24.626;2024-03-25T17:27:01;3.20;;;2.20;;
8312;SDS011;4194;43.408;24.626;2024-03-25T17:29:29;2.67;;;1.50;;
8312;SDS011;4194;43.408;24.626;2024-03-25T17:31:54;1.60;;;1.40;;